Patrick Air Force Base Cocoa Beach US
ICAO: KCOF
IATA: COF
Category: Large
Scheduled Services: No

Elevation: 8 ft
TransAlt. 18000 ft.

Airport Communications:
ORLANDO APP/DEP:132.65
ATIS:119.175
CLNC DEL:118.4
GND:124.35
RESCUE OPS:138.475
KING OPS:150.35
BEACH OPS:311
PMSV METRO:344.6
PTD:139.3
TWR:133.75

KCOF Zoom In..

If you have problems with the map follow the link
https://www.worldairports.se/pages/airport.php?
ICAO=KCOF

Runways:

(A) RW 02 length 9023 ft width 200 ft
ILS 109.10 / hdg 24

(B) RW 11 length 4003 ft width 200 ft
---- / hdg 110

(C) RW 20 length 9023 ft width 200 ft
ILS 110.90 / hdg 204

(D) RW 29 length 4003 ft width 200 ft
---- / hdg 290

Location; KCOF
Day. 25 / Time. 22.56 Zulu
* Altimeter: 30.05
* Temperature: 16° c. 60.8°f.
* Wind from: 050° Speed 03 kn.
Dewpoint: 09° c.
Visibility: 10 Statute Miles.
Clouds: Clear (automated report).

KCOF 252256Z AUTO 05003KT 10SM CLR 16/09 A3005 RMK AO2 SLP180 T01610093 $


Wind From 050°
Speed 03 kn.

 
 
jpsmedia worldairports.se 2020   terms of use